Atlantis — PCDT — position and weather

sailwx.info

Track history (hours):
 
Tides and Currents Weather Stations Pressure Air Temp Water Temp Dewpoint Dewpoint Depression Visibility Wind Speed Wind Dir Waves Ship Positions

Atlantis (Netherlands)

Ship's website: http://www.tallship-company.com/artemis/gb_atlantis.htm

Last reported at 2020-Aug-07 06:27 UTC. Time now 2020-Aug-07 09:55 UTC.
Position N 54°06' E 012°07'.

Length 40 m; draft 4.5 m.

Type: Sailing vessel. MMSI: 246253000.

Date/timePositionNaut miles runAvg speedWind from/ knotsBaromVisibWave heightAir tempDewpointWater temp
2020-Aug-07 06:27N 54°06' E 012°07'0 0.0
2020-Aug-07 04:57N 54°06' E 012°07'0 0.0
2020-Aug-07 04:24N 54°06' E 012°07'0 0.0
2020-Aug-07 04:00N 54°06' E 012°07'0 0.0
2020-Aug-07 03:12N 54°06' E 012°07'0 0.0
2020-Aug-06 23:30N 54°06' E 012°07'0 0.0
2020-Aug-06 21:30N 54°06' E 012°07'0 0.0
2020-Aug-06 20:00N 54°06' E 012°07'0 0.0
2020-Aug-06 16:00N 54°06' E 012°07'0 0.0
2020-Aug-06 13:30N 54°06' E 012°07'5 0.7
2020-Aug-06 05:59N 54°11' E 012°06'0 0.0
2020-Aug-06 05:29N 54°11' E 012°06'0 0.0
2020-Aug-06 04:29N 54°11' E 012°06'0 0.0
2020-Aug-06 03:56N 54°11' E 012°06'0 0.0
2020-Aug-06 01:59N 54°11' E 012°06'0 0.0
2020-Aug-06 01:29N 54°11' E 012°06'0 0.0
2020-Aug-05 22:29N 54°11' E 012°06'0 0.1
2020-Aug-05 20:01N 54°11' E 012°06'4 4.7
2020-Aug-05 19:15N 54°11' E 011°59'14 2.6
2020-Aug-05 13:45N 54°09' E 011°36'2 2.7
2020-Aug-05 12:59N 54°07' E 011°33'1 2.7
2020-Aug-05 12:30N 54°07' E 011°31'10 3.4
2020-Aug-05 09:30N 53°59' E 011°21'6 1.9
2020-Aug-05 06:16N 53°54' E 011°27'0 0.0
2020-Aug-04 22:25N 53°54' E 011°27'0 0.0
2020-Aug-04 20:59N 53°54' E 011°27'0 0.0
2020-Aug-04 19:55N 53°54' E 011°27'0 0.0
2020-Aug-04 16:58N 53°54' E 011°27'25 3.2
2020-Aug-04 08:57N 54°19' E 011°20'1 2.7
2020-Aug-04 08:29N 54°20' E 011°19'4 1.0
2020-Aug-04 04:59N 54°24' E 011°18'0 0.0
2020-Aug-04 03:47N 54°24' E 011°18'9 0.9
2020-Aug-03 17:31N 54°32' E 011°13'5 4.8
2020-Aug-03 16:31N 54°33' E 011°05'5 5.0
2020-Aug-03 15:30N 54°33' E 010°56'10 4.1
2020-Aug-03 13:00N 54°33' E 010°38'8 3.8
2020-Aug-03 11:00N 54°30' E 010°26'3 3.5
2020-Aug-03 10:00N 54°29' E 010°20'2 3.6
2020-Aug-03 09:30N 54°28' E 010°18'2 3.7
2020-Aug-03 09:00N 54°27' E 010°15'6 3.0
2020-Aug-03 07:00N 54°22' E 010°09'0 0.0
2020-Aug-03 05:30N 54°22' E 010°09'0 0.0
2020-Aug-03 04:30N 54°22' E 010°09'0 0.0
2020-Aug-03 03:21N 54°22' E 010°09'0 0.0
2020-Aug-02 23:57N 54°22' E 010°09'0 0.0
2020-Aug-02 17:30N 54°22' E 010°09'0 0.0
2020-Aug-02 16:30N 54°22' E 010°09'0 0.0
2020-Aug-02 13:21N 54°22' E 010°09'0 0.0
2020-Aug-02 12:51N 54°22' E 010°09'0 0.0
2020-Aug-02 12:24N 54°22' E 010°09'0 0.0
2020-Aug-02 10:24N 54°22' E 010°09'0 0.0
2020-Aug-02 09:57N 54°22' E 010°09'0 0.0
2020-Aug-02 06:30N 54°22' E 010°09'0 0.0
2020-Aug-02 05:00N 54°22' E 010°09'0 0.0
2020-Aug-02 04:30N 54°22' E 010°09'0 0.0
2020-Aug-02 04:00N 54°22' E 010°09'0 0.0
2020-Aug-02 03:00N 54°22' E 010°09'0 0.0
2020-Aug-02 02:00N 54°22' E 010°09'0 0.0
2020-Aug-02 01:00N 54°22' E 010°09'0 0.0
2020-Aug-01 22:24N 54°22' E 010°09'8 1.2
2020-Aug-01 16:00N 54°30' E 010°07'9 4.6
2020-Aug-01 14:00N 54°28' E 009°51'0 0.2
2020-Aug-01 11:30N 54°28' E 009°50'7 3.7
2020-Aug-01 09:30N 54°32' E 010°02'8 1.8
2020-Aug-01 05:03N 54°39' E 010°07'9 3.6
2020-Aug-01 02:32N 54°38' E 010°22'0 3.0
2020-Aug-01 02:30N 54°38' E 010°23'5 2.7
2020-Aug-01 00:30N 54°37' E 010°32'1 2.3
2020-Aug-01 00:00N 54°37' E 010°34'11 4.1
2020-Jul-31 21:27N 54°35' E 010°52'14 4.2
2020-Jul-31 18:00N 54°31' E 011°15'34 5.4
2020-Jul-31 11:46N 54°12' E 012°03'7 4.0
2020-Jul-31 09:58N 54°06' E 012°07'0 0.0
2020-Jul-31 06:28N 54°06' E 012°07'0 0.0
2020-Jul-31 05:58N 54°06' E 012°07'0 0.0
2020-Jul-31 04:52N 54°06' E 012°07'0 0.0
2020-Jul-31 03:55N 54°06' E 012°07'0 0.0
2020-Jul-31 00:58N 54°06' E 012°07'0 0.0
2020-Jul-31 00:28N 54°06' E 012°07'0 0.0
2020-Jul-30 22:28N 54°06' E 012°07'0 0.0
2020-Jul-30 21:25N 54°06' E 012°07'0 0.0
2020-Jul-30 20:13N 54°06' E 012°07'0 0.0
2020-Jul-30 19:28N 54°06' E 012°07'0 0.0
2020-Jul-30 13:28N 54°06' E 012°07'0 0.0
2020-Jul-30 10:28N 54°06' E 012°07'4 3.0
2020-Jul-30 09:00N 54°10' E 012°06'1 1.7
2020-Jul-30 08:30N 54°11' E 012°06'0 0.0
2020-Jul-30 05:57N 54°11' E 012°06'0 0.0
2020-Jul-30 04:00N 54°11' E 012°06'0 0.0
2020-Jul-29 21:00N 54°11' E 012°06'0 0.0
2020-Jul-29 20:30N 54°11' E 012°06'0 0.0
2020-Jul-29 19:30N 54°11' E 012°06'0 0.0
2020-Jul-29 17:00N 54°11' E 012°06'0 0.0
2020-Jul-29 16:30N 54°11' E 012°06'0 0.0
2020-Jul-29 15:27N 54°11' E 012°06'0 0.0
2020-Jul-29 14:24N 54°11' E 012°06'26 5.3
2020-Jul-29 09:28N 54°02' E 011°23'8 1.9
2020-Jul-29 05:00N 53°54' E 011°27'0 0.0
2020-Jul-29 02:57N 53°54' E 011°27'0 0.0
2020-Jul-29 00:51N 53°54' E 011°27'0 0.0
2020-Jul-28 23:24N 53°54' E 011°27'0 0.0
2020-Jul-28 19:27N 53°54' E 011°27'0 0.0
2020-Jul-28 16:57N 53°54' E 011°27'0 0.0
2020-Jul-28 14:48N 53°54' E 011°27'0 0.0
2020-Jul-28 13:00N 53°54' E 011°27'0 0.0
2020-Jul-28 11:30N 53°54' E 011°27'0 0.0
2020-Jul-28 10:24N 53°54' E 011°27'0 0.0
2020-Jul-28 09:30N 53°54' E 011°27'  
Track history (hours):
 
Tides and Currents Weather Stations Pressure Air Temp Water Temp Dewpoint Dewpoint Depression Visibility Wind Speed Wind Dir Waves Ship Positions

Atlantis (Netherlands)

Ship's website: http://www.tallship-company.com/artemis/gb_atlantis.htm

Last reported at 2020-Aug-07 06:27 UTC. Time now 2020-Aug-07 09:55 UTC.
Position N 54°06' E 012°07'.

Length 40 m; draft 4.5 m.

Type: Sailing vessel. MMSI: 246253000.

Date/timePositionNaut miles runAvg speedWind from/ knotsBaromVisibWave heightAir tempDewpointWater temp
2020-Aug-07 06:27N 54°06' E 012°07'0 0.0
2020-Aug-07 04:57N 54°06' E 012°07'0 0.0
2020-Aug-07 04:24N 54°06' E 012°07'0 0.0
2020-Aug-07 04:00N 54°06' E 012°07'0 0.0
2020-Aug-07 03:12N 54°06' E 012°07'0 0.0
2020-Aug-06 23:30N 54°06' E 012°07'0 0.0
2020-Aug-06 21:30N 54°06' E 012°07'0 0.0
2020-Aug-06 20:00N 54°06' E 012°07'0 0.0
2020-Aug-06 16:00N 54°06' E 012°07'0 0.0
2020-Aug-06 13:30N 54°06' E 012°07'5 0.7
2020-Aug-06 05:59N 54°11' E 012°06'0 0.0
2020-Aug-06 05:29N 54°11' E 012°06'0 0.0
2020-Aug-06 04:29N 54°11' E 012°06'0 0.0
2020-Aug-06 03:56N 54°11' E 012°06'0 0.0
2020-Aug-06 01:59N 54°11' E 012°06'0 0.0
2020-Aug-06 01:29N 54°11' E 012°06'0 0.0
2020-Aug-05 22:29N 54°11' E 012°06'0 0.1
2020-Aug-05 20:01N 54°11' E 012°06'4 4.7
2020-Aug-05 19:15N 54°11' E 011°59'14 2.6
2020-Aug-05 13:45N 54°09' E 011°36'2 2.7
2020-Aug-05 12:59N 54°07' E 011°33'1 2.7
2020-Aug-05 12:30N 54°07' E 011°31'10 3.4
2020-Aug-05 09:30N 53°59' E 011°21'6 1.9
2020-Aug-05 06:16N 53°54' E 011°27'0 0.0
2020-Aug-04 22:25N 53°54' E 011°27'0 0.0
2020-Aug-04 20:59N 53°54' E 011°27'0 0.0
2020-Aug-04 19:55N 53°54' E 011°27'0 0.0
2020-Aug-04 16:58N 53°54' E 011°27'25 3.2
2020-Aug-04 08:57N 54°19' E 011°20'1 2.7
2020-Aug-04 08:29N 54°20' E 011°19'4 1.0
2020-Aug-04 04:59N 54°24' E 011°18'0 0.0
2020-Aug-04 03:47N 54°24' E 011°18'9 0.9
2020-Aug-03 17:31N 54°32' E 011°13'5 4.8
2020-Aug-03 16:31N 54°33' E 011°05'5 5.0
2020-Aug-03 15:30N 54°33' E 010°56'10 4.1
2020-Aug-03 13:00N 54°33' E 010°38'8 3.8
2020-Aug-03 11:00N 54°30' E 010°26'3 3.5
2020-Aug-03 10:00N 54°29' E 010°20'2 3.6
2020-Aug-03 09:30N 54°28' E 010°18'2 3.7
2020-Aug-03 09:00N 54°27' E 010°15'6 3.0
2020-Aug-03 07:00N 54°22' E 010°09'0 0.0
2020-Aug-03 05:30N 54°22' E 010°09'0 0.0
2020-Aug-03 04:30N 54°22' E 010°09'0 0.0
2020-Aug-03 03:21N 54°22' E 010°09'0 0.0
2020-Aug-02 23:57N 54°22' E 010°09'0 0.0
2020-Aug-02 17:30N 54°22' E 010°09'0 0.0
2020-Aug-02 16:30N 54°22' E 010°09'0 0.0
2020-Aug-02 13:21N 54°22' E 010°09'0 0.0
2020-Aug-02 12:51N 54°22' E 010°09'0 0.0
2020-Aug-02 12:24N 54°22' E 010°09'0 0.0
2020-Aug-02 10:24N 54°22' E 010°09'0 0.0
2020-Aug-02 09:57N 54°22' E 010°09'0 0.0
2020-Aug-02 06:30N 54°22' E 010°09'0 0.0
2020-Aug-02 05:00N 54°22' E 010°09'0 0.0
2020-Aug-02 04:30N 54°22' E 010°09'0 0.0
2020-Aug-02 04:00N 54°22' E 010°09'0 0.0
2020-Aug-02 03:00N 54°22' E 010°09'0 0.0
2020-Aug-02 02:00N 54°22' E 010°09'0 0.0
2020-Aug-02 01:00N 54°22' E 010°09'0 0.0
2020-Aug-01 22:24N 54°22' E 010°09'8 1.2
2020-Aug-01 16:00N 54°30' E 010°07'9 4.6
2020-Aug-01 14:00N 54°28' E 009°51'0 0.2
2020-Aug-01 11:30N 54°28' E 009°50'7 3.7
2020-Aug-01 09:30N 54°32' E 010°02'8 1.8
2020-Aug-01 05:03N 54°39' E 010°07'9 3.6
2020-Aug-01 02:32N 54°38' E 010°22'0 3.0
2020-Aug-01 02:30N 54°38' E 010°23'5 2.7
2020-Aug-01 00:30N 54°37' E 010°32'1 2.3
2020-Aug-01 00:00N 54°37' E 010°34'11 4.1
2020-Jul-31 21:27N 54°35' E 010°52'14 4.2
2020-Jul-31 18:00N 54°31' E 011°15'34 5.4
2020-Jul-31 11:46N 54°12' E 012°03'7 4.0
2020-Jul-31 09:58N 54°06' E 012°07'0 0.0
2020-Jul-31 06:28N 54°06' E 012°07'0 0.0
2020-Jul-31 05:58N 54°06' E 012°07'0 0.0
2020-Jul-31 04:52N 54°06' E 012°07'0 0.0
2020-Jul-31 03:55N 54°06' E 012°07'0 0.0
2020-Jul-31 00:58N 54°06' E 012°07'0 0.0
2020-Jul-31 00:28N 54°06' E 012°07'0 0.0
2020-Jul-30 22:28N 54°06' E 012°07'0 0.0
2020-Jul-30 21:25N 54°06' E 012°07'0 0.0
2020-Jul-30 20:13N 54°06' E 012°07'0 0.0
2020-Jul-30 19:28N 54°06' E 012°07'0 0.0
2020-Jul-30 13:28N 54°06' E 012°07'0 0.0
2020-Jul-30 10:28N 54°06' E 012°07'4 3.0
2020-Jul-30 09:00N 54°10' E 012°06'1 1.7
2020-Jul-30 08:30N 54°11' E 012°06'0 0.0
2020-Jul-30 05:57N 54°11' E 012°06'0 0.0
2020-Jul-30 04:00N 54°11' E 012°06'0 0.0
2020-Jul-29 21:00N 54°11' E 012°06'0 0.0
2020-Jul-29 20:30N 54°11' E 012°06'0 0.0
2020-Jul-29 19:30N 54°11' E 012°06'0 0.0
2020-Jul-29 17:00N 54°11' E 012°06'0 0.0
2020-Jul-29 16:30N 54°11' E 012°06'0 0.0
2020-Jul-29 15:27N 54°11' E 012°06'0 0.0
2020-Jul-29 14:24N 54°11' E 012°06'26 5.3
2020-Jul-29 09:28N 54°02' E 011°23'8 1.9
2020-Jul-29 05:00N 53°54' E 011°27'0 0.0
2020-Jul-29 02:57N 53°54' E 011°27'0 0.0
2020-Jul-29 00:51N 53°54' E 011°27'0 0.0
2020-Jul-28 23:24N 53°54' E 011°27'0 0.0
2020-Jul-28 19:27N 53°54' E 011°27'0 0.0
2020-Jul-28 16:57N 53°54' E 011°27'0 0.0
2020-Jul-28 14:48N 53°54' E 011°27'0 0.0
2020-Jul-28 13:00N 53°54' E 011°27'0 0.0
2020-Jul-28 11:30N 53°54' E 011°27'0 0.0
2020-Jul-28 10:24N 53°54' E 011°27'0 0.0
2020-Jul-28 09:30N 53°54' E 011°27'  

Dump ship's entire track history